createdAt,value
2018-04-17T00:00:06.523Z,3.10
2018-04-17T00:02:34.804Z,2.83
2018-04-17T00:05:03.103Z,3.00
2018-04-17T00:07:31.371Z,2.87
2018-04-17T00:09:59.700Z,2.90
2018-04-17T00:12:27.998Z,2.90
2018-04-17T00:14:56.281Z,3.07
2018-04-17T00:17:24.606Z,3.00
2018-04-17T00:19:52.940Z,3.15
2018-04-17T00:22:21.194Z,3.35
2018-04-17T00:24:49.507Z,3.30
2018-04-17T00:27:17.767Z,2.92
2018-04-17T00:29:46.123Z,3.20
2018-04-17T00:32:14.399Z,3.13
2018-04-17T00:34:42.847Z,2.87
2018-04-17T00:37:11.090Z,2.60
2018-04-17T00:39:39.373Z,3.00
2018-04-17T00:42:07.652Z,2.87
2018-04-17T00:44:36.154Z,3.30
2018-04-17T00:47:05.027Z,2.97
2018-04-17T00:49:33.316Z,3.27
2018-04-17T00:52:01.592Z,3.10
2018-04-17T00:54:29.891Z,2.90
2018-04-17T00:56:58.193Z,2.97
2018-04-17T00:59:26.458Z,2.90
2018-04-17T01:01:54.754Z,3.33
2018-04-17T01:04:23.053Z,2.83
2018-04-17T01:06:51.754Z,3.13
2018-04-17T01:09:20.014Z,3.37
2018-04-17T01:11:48.323Z,3.07
2018-04-17T01:14:16.600Z,3.30
2018-04-17T01:16:44.927Z,2.97
2018-04-17T01:19:13.194Z,2.97
2018-04-17T01:21:41.484Z,2.83
2018-04-17T01:24:09.742Z,3.17
2018-04-17T01:26:38.035Z,2.40
2018-04-17T01:29:06.306Z,3.23
2018-04-17T01:31:34.610Z,3.03
2018-04-17T01:34:02.878Z,2.93
2018-04-17T01:36:31.264Z,3.03
2018-04-17T01:38:59.573Z,3.17
2018-04-17T01:41:27.865Z,3.33
2018-04-17T01:43:56.173Z,3.20
2018-04-17T01:46:24.475Z,3.20
2018-04-17T01:48:52.755Z,3.40
2018-04-17T01:51:21.193Z,3.72
2018-04-17T01:53:49.447Z,3.05
2018-04-17T01:56:17.734Z,3.35
2018-04-17T01:58:46.269Z,4.60
2018-04-17T02:01:14.559Z,2.87
2018-04-17T02:03:42.856Z,3.10
2018-04-17T02:06:11.149Z,2.90
2018-04-17T02:08:39.443Z,3.37
2018-04-17T02:11:07.718Z,3.23
2018-04-17T02:13:36.051Z,3.50
2018-04-17T02:16:04.355Z,3.10
2018-04-17T02:18:32.697Z,2.83
2018-04-17T02:21:01.166Z,3.00
2018-04-17T02:23:29.466Z,2.87
2018-04-17T02:25:58.926Z,2.77
2018-04-17T02:28:27.231Z,2.87
2018-04-17T02:30:55.525Z,2.70
2018-04-17T02:33:23.813Z,3.10
2018-04-17T02:35:52.083Z,3.10
2018-04-17T02:38:20.435Z,3.10
2018-04-17T02:40:48.716Z,3.03
2018-04-17T02:43:17.022Z,3.12
2018-04-17T02:45:45.317Z,2.53
2018-04-17T02:48:13.583Z,3.30
2018-04-17T02:50:41.864Z,3.10
2018-04-17T02:55:44.770Z,2.87
2018-04-17T02:58:13.613Z,3.22
2018-04-17T03:00:41.913Z,2.80
2018-04-17T03:03:10.189Z,3.33
2018-04-17T03:05:38.478Z,3.73
2018-04-17T03:08:06.746Z,3.13
2018-04-17T03:10:35.055Z,4.63
2018-04-17T03:13:04.222Z,2.75
2018-04-17T03:15:32.529Z,2.50
2018-04-17T03:18:00.801Z,3.03
2018-04-17T03:20:29.090Z,3.10
2018-04-17T03:22:57.427Z,3.07
2018-04-17T03:25:25.833Z,3.00
2018-04-17T03:27:54.075Z,3.03
2018-04-17T03:30:22.358Z,3.40
2018-04-17T03:32:50.655Z,2.97
2018-04-17T03:35:19.212Z,3.55
2018-04-17T03:37:47.497Z,3.37
2018-04-17T03:40:16.581Z,3.50
2018-04-17T03:42:44.957Z,3.03
2018-04-17T03:45:13.242Z,3.10
2018-04-17T03:47:41.514Z,3.03
2018-04-17T03:50:10.102Z,3.20
2018-04-17T03:52:38.451Z,3.50
2018-04-17T03:55:06.727Z,3.13
2018-04-17T03:57:35.028Z,3.07
2018-04-17T04:00:03.308Z,3.63
2018-04-17T04:02:31.590Z,3.23
2018-04-17T04:04:59.861Z,3.57
2018-04-17T04:07:28.158Z,3.53
2018-04-17T04:09:56.422Z,3.20
2018-04-17T04:12:24.705Z,3.10
2018-04-17T04:14:52.963Z,3.03
2018-04-17T04:17:32.992Z,4.20
2018-04-17T04:20:13.037Z,3.90
2018-04-17T04:22:53.086Z,3.30
2018-04-17T04:25:38.673Z,3.67
2018-04-17T04:28:07.905Z,2.73
2018-04-17T04:30:36.284Z,4.10
2018-04-17T04:33:05.381Z,3.10
2018-04-17T04:35:33.647Z,3.23
2018-04-17T04:38:01.937Z,3.40
2018-04-17T04:40:30.243Z,3.87
2018-04-17T04:42:58.511Z,3.70
2018-04-17T04:45:27.661Z,3.30
2018-04-17T04:47:55.939Z,3.50
2018-04-17T04:50:24.220Z,3.40
2018-04-17T04:52:52.618Z,4.23
2018-04-17T04:55:20.998Z,3.40
2018-04-17T04:57:49.269Z,3.37
2018-04-17T05:00:17.556Z,4.00
2018-04-17T05:02:45.834Z,5.77
2018-04-17T05:05:14.151Z,4.12
2018-04-17T05:07:42.803Z,3.23
2018-04-17T05:10:11.289Z,3.70
2018-04-17T05:12:39.993Z,3.23
2018-04-17T05:15:08.336Z,5.10
2018-04-17T05:17:36.616Z,3.83
2018-04-17T05:20:05.535Z,3.90
2018-04-17T05:22:33.783Z,3.67
2018-04-17T05:25:02.172Z,5.20
2018-04-17T05:27:30.439Z,3.90
2018-04-17T05:29:58.743Z,4.13
2018-04-17T05:32:27.063Z,3.70
2018-04-17T05:34:55.476Z,3.70
2018-04-17T05:37:23.799Z,3.90
2018-04-17T05:39:52.054Z,4.30
2018-04-17T05:42:20.442Z,4.73
2018-04-17T05:44:48.699Z,4.00
2018-04-17T05:47:17.014Z,4.40
2018-04-17T05:49:45.273Z,4.13
2018-04-17T05:52:13.591Z,3.80
2018-04-17T05:54:42.007Z,4.30
2018-04-17T05:57:10.346Z,4.90
2018-04-17T05:59:38.622Z,4.00
2018-04-17T06:02:06.969Z,4.80
2018-04-17T06:04:35.646Z,4.10
2018-04-17T06:07:03.925Z,4.47
2018-04-17T06:09:32.305Z,5.35
2018-04-17T06:12:00.608Z,4.20
2018-04-17T06:14:28.862Z,5.10
2018-04-17T06:16:57.171Z,4.50
2018-04-17T06:19:25.704Z,4.53
2018-04-17T06:21:53.990Z,3.93
2018-04-17T06:24:22.626Z,4.20
2018-04-17T06:26:50.895Z,4.20
2018-04-17T06:29:19.200Z,4.70
2018-04-17T06:31:47.447Z,3.67
2018-04-17T06:34:15.753Z,3.70
2018-04-17T06:36:44.029Z,3.73
2018-04-17T06:39:12.357Z,4.75
2018-04-17T06:41:40.673Z,6.47
2018-04-17T06:44:09.031Z,5.00
2018-04-17T06:46:37.359Z,4.57
2018-04-17T06:49:06.176Z,4.30
2018-04-17T06:51:34.513Z,4.60
2018-04-17T06:54:02.857Z,4.93
2018-04-17T06:56:31.459Z,5.23
2018-04-17T06:58:59.773Z,4.93
2018-04-17T07:01:28.041Z,6.77
2018-04-17T07:03:56.363Z,6.10
2018-04-17T07:06:24.622Z,6.53
2018-04-17T07:08:52.986Z,6.20
2018-04-17T07:11:21.287Z,6.60
2018-04-17T07:13:49.670Z,6.50
2018-04-17T07:16:18.739Z,6.70
2018-04-17T07:18:47.046Z,6.68
2018-04-17T07:21:15.379Z,7.60
2018-04-17T07:23:43.716Z,6.87
2018-04-17T07:26:11.963Z,7.73
2018-04-17T07:28:40.260Z,7.07
2018-04-17T07:31:08.602Z,7.20
2018-04-17T07:33:36.973Z,6.87
2018-04-17T07:36:05.703Z,6.18
2018-04-17T07:38:34.011Z,6.83
2018-04-17T07:41:02.298Z,7.07
2018-04-17T07:43:30.578Z,7.33
2018-04-17T07:45:58.889Z,8.03
2018-04-17T07:48:39.253Z,7.33
2018-04-17T07:51:07.537Z,8.43
2018-04-17T07:53:35.832Z,7.80
2018-04-17T07:56:04.153Z,8.63
2018-04-17T07:58:34.381Z,8.90
2018-04-17T08:01:02.690Z,11.20
2018-04-17T08:03:30.969Z,9.30
2018-04-17T08:05:59.306Z,9.73
2018-04-17T08:08:28.311Z,10.93
2018-04-17T08:10:57.596Z,13.35
2018-04-17T08:13:25.913Z,13.83
2018-04-17T08:15:54.247Z,12.55
2018-04-17T08:18:22.526Z,14.87
2018-04-17T08:20:50.841Z,17.40
2018-04-17T08:23:19.194Z,15.77
2018-04-17T08:25:48.275Z,15.50
2018-04-17T08:28:16.613Z,16.33
2018-04-17T08:30:44.927Z,16.77
2018-04-17T08:33:13.211Z,14.90
2018-04-17T08:35:41.607Z,15.17
2018-04-17T08:38:09.862Z,16.37
2018-04-17T08:40:38.159Z,15.15
2018-04-17T08:43:06.449Z,14.70
2018-04-17T08:45:34.750Z,14.20
2018-04-17T08:48:03.709Z,13.20
2018-04-17T08:50:32.025Z,12.30
2018-04-17T08:53:00.356Z,11.93
2018-04-17T08:55:28.677Z,11.40
2018-04-17T08:57:56.964Z,9.43
2018-04-17T09:00:25.245Z,9.37
2018-04-17T09:02:53.541Z,7.53
2018-04-17T09:05:21.830Z,6.75
2018-04-17T09:07:50.136Z,5.93
2018-04-17T09:10:18.491Z,5.97
2018-04-17T09:12:46.839Z,6.23
2018-04-17T09:15:15.150Z,5.13
2018-04-17T09:17:43.449Z,5.23
2018-04-17T09:20:11.729Z,6.68
2018-04-17T09:22:40.052Z,6.83
2018-04-17T09:25:09.161Z,5.50
2018-04-17T09:27:37.623Z,5.30
2018-04-17T09:30:05.835Z,3.23
2018-04-17T09:32:34.138Z,4.17
2018-04-17T09:35:02.405Z,4.00
2018-04-17T09:37:30.765Z,3.57
2018-04-17T09:39:59.096Z,3.80
2018-04-17T09:42:27.403Z,4.53
2018-04-17T09:44:55.725Z,3.87
2018-04-17T09:47:24.083Z,3.42
2018-04-17T09:49:52.376Z,3.60
2018-04-17T09:52:20.745Z,3.57
2018-04-17T09:54:49.101Z,3.47
2018-04-17T09:57:17.406Z,3.47
2018-04-17T09:59:45.698Z,3.70
2018-04-17T10:02:14.066Z,3.72
2018-04-17T10:04:42.440Z,4.87
2018-04-17T10:07:10.795Z,4.22
2018-04-17T10:09:39.130Z,3.70
2018-04-17T10:12:07.533Z,5.63
2018-04-17T10:14:36.454Z,7.12
2018-04-17T10:17:05.752Z,3.90
2018-04-17T10:19:34.130Z,4.17
2018-04-17T10:22:02.411Z,4.90
2018-04-17T10:24:31.013Z,4.80
2018-04-17T10:26:59.386Z,4.20
2018-04-17T10:29:27.664Z,3.90
2018-04-17T10:31:56.500Z,4.17
2018-04-17T10:34:24.808Z,4.00
2018-04-17T10:36:53.100Z,4.67
2018-04-17T10:39:21.473Z,4.40
2018-04-17T10:41:49.767Z,3.80
2018-04-17T10:44:18.115Z,3.80
2018-04-17T10:46:46.608Z,3.53
2018-04-17T10:49:14.977Z,3.33
2018-04-17T10:51:43.231Z,3.67
2018-04-17T10:54:11.542Z,3.87
2018-04-17T10:56:39.817Z,3.53
2018-04-17T10:59:08.147Z,3.73
2018-04-17T11:01:36.405Z,3.27
2018-04-17T11:04:04.853Z,4.33
2018-04-17T11:06:33.121Z,3.30
2018-04-17T11:09:01.453Z,3.55
2018-04-17T11:11:29.813Z,4.23
2018-04-17T11:13:58.067Z,3.43
2018-04-17T11:16:26.357Z,4.10
2018-04-17T11:18:54.706Z,4.00
2018-04-17T11:21:23.002Z,3.53
2018-04-17T11:23:51.357Z,4.20
2018-04-17T11:26:19.635Z,4.03
2018-04-17T11:28:47.922Z,4.40
2018-04-17T11:31:16.233Z,3.70
2018-04-17T11:33:44.500Z,3.87
2018-04-17T11:36:12.903Z,3.33
2018-04-17T11:38:41.166Z,3.30
2018-04-17T11:41:09.470Z,3.43
2018-04-17T11:43:37.857Z,3.40
2018-04-17T11:46:06.161Z,2.80
2018-04-17T11:48:34.440Z,3.33
2018-04-17T11:51:02.751Z,3.10
2018-04-17T11:53:31.011Z,3.90
2018-04-17T11:55:59.309Z,3.43
2018-04-17T11:58:27.586Z,3.47
2018-04-17T12:00:55.867Z,3.60
2018-04-17T12:03:24.168Z,2.90
2018-04-17T12:05:52.624Z,3.13
2018-04-17T12:08:20.908Z,3.63
2018-04-17T12:10:49.188Z,2.20
2018-04-17T12:13:17.558Z,1.90
2018-04-17T12:15:45.859Z,2.30
2018-04-17T12:18:14.156Z,2.27
2018-04-17T12:20:42.418Z,1.93
2018-04-17T12:23:10.736Z,1.80
2018-04-17T12:25:39.150Z,2.00
2018-04-17T12:28:07.470Z,2.40
2018-04-17T12:30:35.761Z,1.90
2018-04-17T12:33:04.045Z,1.83
2018-04-17T12:35:32.347Z,2.30
2018-04-17T12:38:00.705Z,2.30
2018-04-17T12:40:29.370Z,2.03
2018-04-17T12:42:57.673Z,1.60
2018-04-17T12:45:26.622Z,1.80
2018-04-17T12:47:55.171Z,1.90
2018-04-17T12:50:23.482Z,1.90
2018-04-17T12:52:51.826Z,1.77
2018-04-17T12:55:20.087Z,1.60
2018-04-17T12:57:48.395Z,1.80
2018-04-17T13:00:18.542Z,2.13
2018-04-17T13:02:49.987Z,2.13
2018-04-17T13:05:18.305Z,1.73
2018-04-17T13:07:46.627Z,2.40
2018-04-17T13:10:14.886Z,1.90
2018-04-17T13:12:43.152Z,1.70
2018-04-17T13:15:11.466Z,1.90
2018-04-17T13:17:39.749Z,1.90
2018-04-17T13:20:08.037Z,1.60
2018-04-17T13:22:36.295Z,1.83
2018-04-17T13:25:05.614Z,1.90
2018-04-17T13:27:33.903Z,2.47
2018-04-17T13:30:02.248Z,2.10
2018-04-17T13:32:30.532Z,1.90
2018-04-17T13:34:58.857Z,1.90
2018-04-17T13:37:27.130Z,1.90
2018-04-17T13:39:58.076Z,1.73
2018-04-17T13:42:26.364Z,1.60
2018-04-17T13:44:54.654Z,1.63
2018-04-17T13:47:22.941Z,2.00
2018-04-17T13:49:51.359Z,2.07
2018-04-17T13:52:19.726Z,1.80
2018-04-17T13:54:48.499Z,1.93
2018-04-17T13:57:16.821Z,1.90
2018-04-17T13:59:46.443Z,2.30
2018-04-17T14:02:14.728Z,2.08
2018-04-17T14:04:43.018Z,2.17
2018-04-17T14:07:11.356Z,2.03
2018-04-17T14:09:40.048Z,2.07
2018-04-17T14:12:08.364Z,2.40
2018-04-17T14:14:36.630Z,1.60
2018-04-17T14:17:05.046Z,1.80
2018-04-17T14:19:33.347Z,1.80
2018-04-17T14:22:01.695Z,2.30
2018-04-17T14:24:29.926Z,1.60
2018-04-17T14:26:58.231Z,2.00
2018-04-17T14:29:27.371Z,1.80
2018-04-17T14:31:55.646Z,1.83
2018-04-17T14:34:23.947Z,2.10
2018-04-17T14:36:53.434Z,1.83
2018-04-17T14:39:21.727Z,2.00
2018-04-17T14:41:50.040Z,1.90
2018-04-17T14:44:18.301Z,1.80
2018-04-17T14:46:46.610Z,2.10
2018-04-17T14:49:14.874Z,2.05
2018-04-17T14:51:43.211Z,1.80
2018-04-17T14:54:11.474Z,2.08
2018-04-17T14:56:39.810Z,2.07
2018-04-17T14:59:08.125Z,2.67
2018-04-17T15:01:36.429Z,5.03
2018-04-17T15:04:04.730Z,2.10
2018-04-17T15:06:33.042Z,1.80
2018-04-17T15:09:01.331Z,2.73
2018-04-17T15:11:29.663Z,2.47
2018-04-17T15:13:58.011Z,2.27
2018-04-17T15:16:26.324Z,2.10
2018-04-17T15:18:54.657Z,2.60
2018-04-17T15:21:22.973Z,2.07
2018-04-17T15:23:51.857Z,2.60
2018-04-17T15:26:20.227Z,2.20
2018-04-17T15:28:48.520Z,1.70
2018-04-17T15:31:16.839Z,1.83
2018-04-17T15:33:45.138Z,2.40
2018-04-17T15:36:13.516Z,2.60
2018-04-17T15:38:41.810Z,2.73
2018-04-17T15:41:10.194Z,2.58
2018-04-17T15:43:38.699Z,1.93
2018-04-17T15:46:06.994Z,2.33
